メインページ
METAR-TAF:

METAR-TAF

空港 :

ウシュアイア, アルゼンチン

ウシュアイア国際空港

緯度: 54-48S, 経度: 068-19W, 海抜: 16m

現時点の気象観測

当レポートは37分前の03:00(UTC)に作成
西の風 8kt
気温 0°C
湿度 100%
気圧 1007 hPa
視程10km以上
高度2000ftの曇り
小雪

METAR: SAWH 260300Z 27008KT 9999 -SN OVC020 00/00 Q1007

時間: 00:37 (03:37 UTC)

予報

当レポートは4時間37分前の23:00(UTC)に作成
予報は26日の 00時(UTC)から 26日の 24時(UTC)まで有効
南西の風 15kt、最大30ktの突風を伴う
視程: 3000m
高度400ftの千切れ雲あり
高度2500ftの千切れ雲あり
にわか雪
26日の 04時(UTC)から 26日の 06時(UTC)まで徐々に
西の風 10kt
視程: 5000m
高度200ftの千切れ雲あり
高度4000ftの曇り
小雨, 雪

TAF: SAWH 252300Z 2600/2624 23015G30KT 3000 SHSN BKN004 BKN025 TX03/2618Z TNM04/2611Z BECMG 2604/2606 27010KT 5000 -RASN BKN002 OVC040

4,000以上の空港の気象観測と天気予報(METAR報とTAF報)

利用可能な観測所は地図上に黄色い丸と赤い丸で示す。

丸の上にカーソルを重ねると観測所名を参照できる。

次にクリックすると気象観測と天気予報を参照できる。

マップの切り替え:黒色「×」印の緑ボタンをクリックして拡大、「-」印の緑ボタンをクリックして縮小、緑色の三角印をクリックして隣りの地図に切り替え


METAR-TAF: